sensor_id;sensor_type;location;lat;lon;timestamp;P1;durP1;ratioP1;P2;durP2;ratioP2
58338;SDS011;68636;52.704;6.536;2023-04-25T00:00:45;20.38;;;4.30;;
58338;SDS011;68636;52.704;6.536;2023-04-25T00:03:11;26.05;;;3.70;;
58338;SDS011;68636;52.704;6.536;2023-04-25T00:05:37;29.25;;;4.47;;
58338;SDS011;68636;52.704;6.536;2023-04-25T00:08:03;30.73;;;3.90;;
58338;SDS011;68636;52.704;6.536;2023-04-25T00:10:29;31.77;;;4.25;;
58338;SDS011;68636;52.704;6.536;2023-04-25T00:12:55;22.77;;;3.05;;
58338;SDS011;68636;52.704;6.536;2023-04-25T00:15:22;21.67;;;3.35;;
58338;SDS011;68636;52.704;6.536;2023-04-25T00:17:49;19.95;;;3.97;;
58338;SDS011;68636;52.704;6.536;2023-04-25T00:20:17;19.73;;;3.30;;
58338;SDS011;68636;52.704;6.536;2023-04-25T00:22:43;22.45;;;3.55;;
58338;SDS011;68636;52.704;6.536;2023-04-25T00:25:09;20.25;;;3.35;;
58338;SDS011;68636;52.704;6.536;2023-04-25T00:27:35;28.13;;;3.75;;
58338;SDS011;68636;52.704;6.536;2023-04-25T00:30:00;25.33;;;3.50;;
58338;SDS011;68636;52.704;6.536;2023-04-25T00:32:27;15.73;;;3.20;;
58338;SDS011;68636;52.704;6.536;2023-04-25T00:34:54;30.25;;;4.07;;
58338;SDS011;68636;52.704;6.536;2023-04-25T00:37:20;23.58;;;3.55;;
58338;SDS011;68636;52.704;6.536;2023-04-25T00:39:47;28.02;;;3.47;;
58338;SDS011;68636;52.704;6.536;2023-04-25T00:42:12;19.20;;;2.83;;
58338;SDS011;68636;52.704;6.536;2023-04-25T00:44:39;24.15;;;3.13;;
58338;SDS011;68636;52.704;6.536;2023-04-25T00:47:05;23.40;;;3.55;;
58338;SDS011;68636;52.704;6.536;2023-04-25T00:49:32;18.35;;;3.65;;
58338;SDS011;68636;52.704;6.536;2023-04-25T00:51:58;23.88;;;3.72;;
58338;SDS011;68636;52.704;6.536;2023-04-25T00:54:24;22.90;;;3.97;;
58338;SDS011;68636;52.704;6.536;2023-04-25T00:56:50;28.58;;;3.25;;
58338;SDS011;68636;52.704;6.536;2023-04-25T00:59:16;22.95;;;3.10;;
58338;SDS011;68636;52.704;6.536;2023-04-25T01:01:43;28.73;;;3.72;;
58338;SDS011;68636;52.704;6.536;2023-04-25T01:04:09;19.05;;;3.75;;
58338;SDS011;68636;52.704;6.536;2023-04-25T01:06:36;30.27;;;4.45;;
58338;SDS011;68636;52.704;6.536;2023-04-25T01:09:02;24.25;;;3.58;;
58338;SDS011;68636;52.704;6.536;2023-04-25T01:11:28;28.20;;;4.85;;
58338;SDS011;68636;52.704;6.536;2023-04-25T01:13:54;26.92;;;4.82;;
58338;SDS011;68636;52.704;6.536;2023-04-25T01:16:20;19.80;;;3.90;;
58338;SDS011;68636;52.704;6.536;2023-04-25T01:18:48;22.45;;;3.67;;
58338;SDS011;68636;52.704;6.536;2023-04-25T01:21:15;25.90;;;3.53;;
58338;SDS011;68636;52.704;6.536;2023-04-25T01:23:42;24.10;;;3.45;;
58338;SDS011;68636;52.704;6.536;2023-04-25T01:26:09;18.92;;;3.20;;
58338;SDS011;68636;52.704;6.536;2023-04-25T01:28:35;19.30;;;3.75;;
58338;SDS011;68636;52.704;6.536;2023-04-25T01:31:02;28.13;;;3.72;;
58338;SDS011;68636;52.704;6.536;2023-04-25T01:33:28;19.67;;;3.60;;
58338;SDS011;68636;52.704;6.536;2023-04-25T01:35:54;26.02;;;3.83;;
58338;SDS011;68636;52.704;6.536;2023-04-25T01:38:20;26.50;;;3.72;;
58338;SDS011;68636;52.704;6.536;2023-04-25T01:40:46;19.98;;;3.85;;
58338;SDS011;68636;52.704;6.536;2023-04-25T01:43:14;20.63;;;3.33;;
58338;SDS011;68636;52.704;6.536;2023-04-25T01:45:43;20.27;;;3.63;;
58338;SDS011;68636;52.704;6.536;2023-04-25T01:48:09;22.17;;;4.55;;
58338;SDS011;68636;52.704;6.536;2023-04-25T01:50:37;18.75;;;3.80;;
58338;SDS011;68636;52.704;6.536;2023-04-25T01:53:04;27.70;;;4.28;;
58338;SDS011;68636;52.704;6.536;2023-04-25T01:55:30;20.35;;;3.20;;
58338;SDS011;68636;52.704;6.536;2023-04-25T01:57:56;25.58;;;4.40;;
58338;SDS011;68636;52.704;6.536;2023-04-25T02:00:21;20.10;;;3.45;;
58338;SDS011;68636;52.704;6.536;2023-04-25T02:02:48;21.65;;;3.90;;
58338;SDS011;68636;52.704;6.536;2023-04-25T02:05:15;25.92;;;4.20;;
58338;SDS011;68636;52.704;6.536;2023-04-25T02:07:41;22.70;;;3.60;;
58338;SDS011;68636;52.704;6.536;2023-04-25T02:10:07;28.90;;;3.47;;
58338;SDS011;68636;52.704;6.536;2023-04-25T02:12:34;17.20;;;4.60;;
58338;SDS011;68636;52.704;6.536;2023-04-25T02:15:00;25.50;;;3.38;;
58338;SDS011;68636;52.704;6.536;2023-04-25T02:17:26;21.40;;;2.53;;
58338;SDS011;68636;52.704;6.536;2023-04-25T02:19:52;16.08;;;2.85;;
58338;SDS011;68636;52.704;6.536;2023-04-25T02:22:18;26.33;;;2.92;;
58338;SDS011;68636;52.704;6.536;2023-04-25T02:24:44;14.30;;;1.92;;
58338;SDS011;68636;52.704;6.536;2023-04-25T02:27:10;20.33;;;2.63;;
58338;SDS011;68636;52.704;6.536;2023-04-25T02:29:36;19.92;;;2.10;;
58338;SDS011;68636;52.704;6.536;2023-04-25T02:32:01;19.00;;;1.92;;
58338;SDS011;68636;52.704;6.536;2023-04-25T02:34:27;20.23;;;2.67;;
58338;SDS011;68636;52.704;6.536;2023-04-25T02:36:53;13.00;;;2.30;;
58338;SDS011;68636;52.704;6.536;2023-04-25T02:39:18;20.63;;;2.63;;
58338;SDS011;68636;52.704;6.536;2023-04-25T02:41:44;18.58;;;3.20;;
58338;SDS011;68636;52.704;6.536;2023-04-25T02:44:10;19.40;;;2.42;;
58338;SDS011;68636;52.704;6.536;2023-04-25T02:46:36;26.02;;;3.13;;
58338;SDS011;68636;52.704;6.536;2023-04-25T02:49:01;22.45;;;2.63;;
58338;SDS011;68636;52.704;6.536;2023-04-25T02:51:27;21.05;;;2.63;;
58338;SDS011;68636;52.704;6.536;2023-04-25T02:53:53;23.15;;;2.28;;
58338;SDS011;68636;52.704;6.536;2023-04-25T02:56:18;20.40;;;2.55;;
58338;SDS011;68636;52.704;6.536;2023-04-25T02:58:44;17.88;;;2.00;;
58338;SDS011;68636;52.704;6.536;2023-04-25T03:01:10;17.55;;;2.80;;
58338;SDS011;68636;52.704;6.536;2023-04-25T03:03:36;23.95;;;3.03;;
58338;SDS011;68636;52.704;6.536;2023-04-25T03:06:01;19.40;;;2.13;;
58338;SDS011;68636;52.704;6.536;2023-04-25T03:08:27;9.15;;;1.30;;
58338;SDS011;68636;52.704;6.536;2023-04-25T03:10:57;8.90;;;1.05;;
58338;SDS011;68636;52.704;6.536;2023-04-25T03:13:23;13.02;;;1.90;;
58338;SDS011;68636;52.704;6.536;2023-04-25T03:15:49;12.25;;;1.42;;
58338;SDS011;68636;52.704;6.536;2023-04-25T03:18:15;14.20;;;2.72;;
58338;SDS011;68636;52.704;6.536;2023-04-25T03:20:41;15.52;;;1.92;;
58338;SDS011;68636;52.704;6.536;2023-04-25T03:23:07;10.35;;;1.38;;
58338;SDS011;68636;52.704;6.536;2023-04-25T03:25:32;12.23;;;1.35;;
58338;SDS011;68636;52.704;6.536;2023-04-25T03:27:58;14.25;;;1.20;;
58338;SDS011;68636;52.704;6.536;2023-04-25T03:30:24;9.10;;;1.52;;
58338;SDS011;68636;52.704;6.536;2023-04-25T03:32:50;10.05;;;1.20;;
58338;SDS011;68636;52.704;6.536;2023-04-25T03:35:16;11.27;;;1.42;;
58338;SDS011;68636;52.704;6.536;2023-04-25T03:37:41;11.80;;;1.23;;
58338;SDS011;68636;52.704;6.536;2023-04-25T03:40:10;17.23;;;2.30;;
58338;SDS011;68636;52.704;6.536;2023-04-25T03:42:36;18.38;;;1.98;;
58338;SDS011;68636;52.704;6.536;2023-04-25T03:45:02;16.88;;;1.45;;
58338;SDS011;68636;52.704;6.536;2023-04-25T03:47:28;13.60;;;1.38;;
58338;SDS011;68636;52.704;6.536;2023-04-25T03:49:54;19.45;;;2.33;;
58338;SDS011;68636;52.704;6.536;2023-04-25T03:52:20;13.45;;;1.77;;
58338;SDS011;68636;52.704;6.536;2023-04-25T03:54:45;10.65;;;1.55;;
58338;SDS011;68636;52.704;6.536;2023-04-25T03:57:11;12.23;;;1.42;;
58338;SDS011;68636;52.704;6.536;2023-04-25T03:59:37;16.73;;;1.50;;
58338;SDS011;68636;52.704;6.536;2023-04-25T04:02:03;7.07;;;0.82;;
58338;SDS011;68636;52.704;6.536;2023-04-25T04:04:28;6.95;;;0.93;;
58338;SDS011;68636;52.704;6.536;2023-04-25T04:06:55;17.00;;;1.30;;
58338;SDS011;68636;52.704;6.536;2023-04-25T04:09:20;12.38;;;1.35;;
58338;SDS011;68636;52.704;6.536;2023-04-25T04:11:46;5.90;;;0.80;;
58338;SDS011;68636;52.704;6.536;2023-04-25T04:14:12;9.80;;;1.30;;
58338;SDS011;68636;52.704;6.536;2023-04-25T04:16:38;10.27;;;1.20;;
58338;SDS011;68636;52.704;6.536;2023-04-25T04:19:04;9.57;;;0.95;;
58338;SDS011;68636;52.704;6.536;2023-04-25T04:21:29;11.23;;;1.38;;
58338;SDS011;68636;52.704;6.536;2023-04-25T04:23:55;6.60;;;0.70;;
58338;SDS011;68636;52.704;6.536;2023-04-25T04:26:22;6.68;;;1.02;;
58338;SDS011;68636;52.704;6.536;2023-04-25T04:28:49;9.00;;;0.90;;
58338;SDS011;68636;52.704;6.536;2023-04-25T04:31:19;7.78;;;2.08;;
58338;SDS011;68636;52.704;6.536;2023-04-25T04:33:46;15.25;;;1.42;;
58338;SDS011;68636;52.704;6.536;2023-04-25T04:36:12;14.07;;;1.20;;
58338;SDS011;68636;52.704;6.536;2023-04-25T04:38:38;12.13;;;1.40;;
58338;SDS011;68636;52.704;6.536;2023-04-25T04:41:05;8.23;;;0.90;;
58338;SDS011;68636;52.704;6.536;2023-04-25T04:43:31;11.77;;;1.70;;
58338;SDS011;68636;52.704;6.536;2023-04-25T04:45:59;12.88;;;1.40;;
58338;SDS011;68636;52.704;6.536;2023-04-25T04:50:51;15.00;;;1.83;;
58338;SDS011;68636;52.704;6.536;2023-04-25T04:53:17;17.42;;;1.58;;
58338;SDS011;68636;52.704;6.536;2023-04-25T04:55:43;17.23;;;2.15;;
58338;SDS011;68636;52.704;6.536;2023-04-25T04:58:09;19.67;;;2.45;;
58338;SDS011;68636;52.704;6.536;2023-04-25T05:00:34;13.85;;;1.58;;
58338;SDS011;68636;52.704;6.536;2023-04-25T05:03:00;15.40;;;1.52;;
58338;SDS011;68636;52.704;6.536;2023-04-25T05:05:26;15.95;;;1.80;;
58338;SDS011;68636;52.704;6.536;2023-04-25T05:07:52;20.13;;;1.83;;
58338;SDS011;68636;52.704;6.536;2023-04-25T05:10:18;11.73;;;1.38;;
58338;SDS011;68636;52.704;6.536;2023-04-25T05:12:44;14.48;;;1.70;;
58338;SDS011;68636;52.704;6.536;2023-04-25T05:15:10;20.17;;;1.98;;
58338;SDS011;68636;52.704;6.536;2023-04-25T05:17:36;13.77;;;1.33;;
58338;SDS011;68636;52.704;6.536;2023-04-25T05:20:02;19.90;;;1.60;;
58338;SDS011;68636;52.704;6.536;2023-04-25T05:22:30;13.10;;;2.03;;
58338;SDS011;68636;52.704;6.536;2023-04-25T05:24:56;16.27;;;1.45;;
58338;SDS011;68636;52.704;6.536;2023-04-25T05:27:22;22.27;;;3.13;;
58338;SDS011;68636;52.704;6.536;2023-04-25T05:29:49;9.68;;;1.30;;
58338;SDS011;68636;52.704;6.536;2023-04-25T05:32:15;26.25;;;2.25;;
58338;SDS011;68636;52.704;6.536;2023-04-25T05:34:41;15.57;;;1.40;;
58338;SDS011;68636;52.704;6.536;2023-04-25T05:37:07;12.57;;;1.33;;
58338;SDS011;68636;52.704;6.536;2023-04-25T05:39:32;17.85;;;1.77;;
58338;SDS011;68636;52.704;6.536;2023-04-25T05:41:58;20.70;;;1.30;;
58338;SDS011;68636;52.704;6.536;2023-04-25T05:44:24;14.82;;;1.80;;
58338;SDS011;68636;52.704;6.536;2023-04-25T05:46:50;8.48;;;1.58;;
58338;SDS011;68636;52.704;6.536;2023-04-25T05:49:15;16.50;;;1.50;;
58338;SDS011;68636;52.704;6.536;2023-04-25T05:51:41;12.20;;;1.58;;
58338;SDS011;68636;52.704;6.536;2023-04-25T05:54:07;13.23;;;2.00;;
58338;SDS011;68636;52.704;6.536;2023-04-25T05:56:32;14.52;;;1.73;;
58338;SDS011;68636;52.704;6.536;2023-04-25T05:58:58;11.43;;;1.60;;
58338;SDS011;68636;52.704;6.536;2023-04-25T06:01:24;13.68;;;2.17;;
58338;SDS011;68636;52.704;6.536;2023-04-25T06:03:50;12.23;;;1.67;;
58338;SDS011;68636;52.704;6.536;2023-04-25T06:06:17;7.45;;;1.35;;
58338;SDS011;68636;52.704;6.536;2023-04-25T06:08:43;14.85;;;1.40;;
58338;SDS011;68636;52.704;6.536;2023-04-25T06:11:10;16.60;;;1.83;;
58338;SDS011;68636;52.704;6.536;2023-04-25T06:13:36;11.48;;;1.95;;
58338;SDS011;68636;52.704;6.536;2023-04-25T06:16:01;10.45;;;1.23;;
58338;SDS011;68636;52.704;6.536;2023-04-25T06:18:27;14.98;;;1.63;;
58338;SDS011;68636;52.704;6.536;2023-04-25T06:20:53;14.00;;;1.52;;
58338;SDS011;68636;52.704;6.536;2023-04-25T06:23:19;13.48;;;1.83;;
58338;SDS011;68636;52.704;6.536;2023-04-25T06:25:44;12.43;;;1.10;;
58338;SDS011;68636;52.704;6.536;2023-04-25T06:28:10;9.38;;;1.17;;
58338;SDS011;68636;52.704;6.536;2023-04-25T06:30:36;11.10;;;1.38;;
58338;SDS011;68636;52.704;6.536;2023-04-25T06:33:01;12.75;;;1.70;;
58338;SDS011;68636;52.704;6.536;2023-04-25T06:35:27;11.77;;;1.15;;
58338;SDS011;68636;52.704;6.536;2023-04-25T06:37:53;15.00;;;1.40;;
58338;SDS011;68636;52.704;6.536;2023-04-25T06:40:18;15.65;;;1.50;;
58338;SDS011;68636;52.704;6.536;2023-04-25T06:42:44;16.45;;;1.38;;
58338;SDS011;68636;52.704;6.536;2023-04-25T06:45:10;8.10;;;1.23;;
58338;SDS011;68636;52.704;6.536;2023-04-25T06:47:36;10.25;;;1.02;;
58338;SDS011;68636;52.704;6.536;2023-04-25T06:50:01;10.30;;;0.93;;
58338;SDS011;68636;52.704;6.536;2023-04-25T06:52:27;12.38;;;1.00;;
58338;SDS011;68636;52.704;6.536;2023-04-25T06:54:53;16.23;;;1.52;;
58338;SDS011;68636;52.704;6.536;2023-04-25T06:57:19;11.13;;;2.00;;
58338;SDS011;68636;52.704;6.536;2023-04-25T06:59:44;15.20;;;1.50;;
58338;SDS011;68636;52.704;6.536;2023-04-25T07:02:10;12.82;;;1.10;;
58338;SDS011;68636;52.704;6.536;2023-04-25T07:04:36;10.80;;;1.10;;
58338;SDS011;68636;52.704;6.536;2023-04-25T07:07:02;10.50;;;0.70;;
58338;SDS011;68636;52.704;6.536;2023-04-25T07:09:28;9.87;;;1.30;;
58338;SDS011;68636;52.704;6.536;2023-04-25T07:11:55;14.30;;;1.48;;
58338;SDS011;68636;52.704;6.536;2023-04-25T07:14:21;8.93;;;0.98;;
58338;SDS011;68636;52.704;6.536;2023-04-25T07:16:47;15.13;;;1.33;;
58338;SDS011;68636;52.704;6.536;2023-04-25T07:19:13;13.40;;;0.90;;
58338;SDS011;68636;52.704;6.536;2023-04-25T07:21:39;17.00;;;1.45;;
58338;SDS011;68636;52.704;6.536;2023-04-25T07:24:05;11.70;;;1.02;;
58338;SDS011;68636;52.704;6.536;2023-04-25T07:26:31;6.60;;;0.77;;
58338;SDS011;68636;52.704;6.536;2023-04-25T07:28:56;8.27;;;0.70;;
58338;SDS011;68636;52.704;6.536;2023-04-25T07:31:22;4.50;;;0.50;;
58338;SDS011;68636;52.704;6.536;2023-04-25T07:33:48;10.98;;;0.70;;
58338;SDS011;68636;52.704;6.536;2023-04-25T07:36:14;8.10;;;1.30;;
58338;SDS011;68636;52.704;6.536;2023-04-25T07:38:40;7.85;;;0.63;;
58338;SDS011;68636;52.704;6.536;2023-04-25T07:41:06;9.50;;;0.70;;
58338;SDS011;68636;52.704;6.536;2023-04-25T07:43:32;8.20;;;0.85;;
58338;SDS011;68636;52.704;6.536;2023-04-25T07:45:58;16.90;;;1.40;;
58338;SDS011;68636;52.704;6.536;2023-04-25T07:48:23;10.25;;;0.63;;
58338;SDS011;68636;52.704;6.536;2023-04-25T07:50:49;8.65;;;0.85;;
58338;SDS011;68636;52.704;6.536;2023-04-25T07:53:15;7.47;;;0.70;;
58338;SDS011;68636;52.704;6.536;2023-04-25T07:55:41;8.63;;;0.73;;
58338;SDS011;68636;52.704;6.536;2023-04-25T07:58:07;8.40;;;0.80;;
58338;SDS011;68636;52.704;6.536;2023-04-25T08:00:33;11.18;;;1.08;;
58338;SDS011;68636;52.704;6.536;2023-04-25T08:02:59;9.93;;;0.82;;
58338;SDS011;68636;52.704;6.536;2023-04-25T08:05:24;11.73;;;0.95;;
58338;SDS011;68636;52.704;6.536;2023-04-25T08:07:50;17.85;;;1.55;;
58338;SDS011;68636;52.704;6.536;2023-04-25T08:10:16;9.55;;;1.20;;
58338;SDS011;68636;52.704;6.536;2023-04-25T08:12:42;7.75;;;1.23;;
58338;SDS011;68636;52.704;6.536;2023-04-25T08:15:08;11.98;;;1.17;;
58338;SDS011;68636;52.704;6.536;2023-04-25T08:17:34;13.50;;;1.10;;
58338;SDS011;68636;52.704;6.536;2023-04-25T08:20:00;12.32;;;0.82;;
58338;SDS011;68636;52.704;6.536;2023-04-25T08:22:26;11.38;;;1.08;;
58338;SDS011;68636;52.704;6.536;2023-04-25T08:24:53;5.03;;;0.73;;
58338;SDS011;68636;52.704;6.536;2023-04-25T08:27:19;16.50;;;1.70;;
58338;SDS011;68636;52.704;6.536;2023-04-25T08:29:45;11.93;;;0.90;;
58338;SDS011;68636;52.704;6.536;2023-04-25T08:32:11;13.05;;;1.25;;
58338;SDS011;68636;52.704;6.536;2023-04-25T08:34:37;10.43;;;1.27;;
58338;SDS011;68636;52.704;6.536;2023-04-25T08:37:07;8.93;;;1.00;;
58338;SDS011;68636;52.704;6.536;2023-04-25T08:39:34;9.52;;;0.85;;
58338;SDS011;68636;52.704;6.536;2023-04-25T08:42:01;8.63;;;0.80;;
58338;SDS011;68636;52.704;6.536;2023-04-25T08:44:33;4.45;;;0.43;;
58338;SDS011;68636;52.704;6.536;2023-04-25T08:47:01;4.65;;;0.57;;
58338;SDS011;68636;52.704;6.536;2023-04-25T08:49:33;5.13;;;0.50;;
58338;SDS011;68636;52.704;6.536;2023-04-25T08:52:00;7.47;;;0.47;;
58338;SDS011;68636;52.704;6.536;2023-04-25T08:54:29;4.82;;;0.55;;
58338;SDS011;68636;52.704;6.536;2023-04-25T08:56:57;7.15;;;0.40;;
58338;SDS011;68636;52.704;6.536;2023-04-25T08:59:27;3.58;;;0.40;;
58338;SDS011;68636;52.704;6.536;2023-04-25T09:01:53;8.55;;;0.63;;
58338;SDS011;68636;52.704;6.536;2023-04-25T09:04:20;7.32;;;0.50;;
58338;SDS011;68636;52.704;6.536;2023-04-25T09:06:46;5.15;;;0.50;;
58338;SDS011;68636;52.704;6.536;2023-04-25T09:09:12;6.03;;;0.73;;
58338;SDS011;68636;52.704;6.536;2023-04-25T09:11:39;7.82;;;0.73;;
58338;SDS011;68636;52.704;6.536;2023-04-25T09:14:21;7.82;;;0.77;;
58338;SDS011;68636;52.704;6.536;2023-04-25T09:16:56;8.55;;;0.80;;
58338;SDS011;68636;52.704;6.536;2023-04-25T09:19:32;5.18;;;0.50;;
58338;SDS011;68636;52.704;6.536;2023-04-25T09:22:01;3.95;;;0.50;;
58338;SDS011;68636;52.704;6.536;2023-04-25T09:24:32;14.25;;;1.08;;
58338;SDS011;68636;52.704;6.536;2023-04-25T09:26:59;11.57;;;0.70;;
58338;SDS011;68636;52.704;6.536;2023-04-25T09:29:28;8.88;;;0.52;;
58338;SDS011;68636;52.704;6.536;2023-04-25T09:32:15;4.82;;;0.50;;
58338;SDS011;68636;52.704;6.536;2023-04-25T09:34:57;7.97;;;0.63;;
58338;SDS011;68636;52.704;6.536;2023-04-25T09:37:24;12.00;;;0.65;;
58338;SDS011;68636;52.704;6.536;2023-04-25T09:39:56;9.95;;;0.63;;
58338;SDS011;68636;52.704;6.536;2023-04-25T09:42:26;12.05;;;1.00;;
58338;SDS011;68636;52.704;6.536;2023-04-25T09:44:54;7.40;;;0.63;;
58338;SDS011;68636;52.704;6.536;2023-04-25T09:49:48;7.47;;;0.45;;
58338;SDS011;68636;52.704;6.536;2023-04-25T09:52:16;8.57;;;0.90;;
58338;SDS011;68636;52.704;6.536;2023-04-25T09:54:43;11.70;;;0.90;;
58338;SDS011;68636;52.704;6.536;2023-04-25T09:57:14;13.15;;;0.80;;
58338;SDS011;68636;52.704;6.536;2023-04-25T09:59:50;12.55;;;0.90;;
58338;SDS011;68636;52.704;6.536;2023-04-25T10:02:20;16.17;;;1.15;;
58338;SDS011;68636;52.704;6.536;2023-04-25T10:04:49;18.27;;;1.10;;
58338;SDS011;68636;52.704;6.536;2023-04-25T10:07:18;11.43;;;1.10;;
58338;SDS011;68636;52.704;6.536;2023-04-25T10:09:47;9.05;;;1.10;;
58338;SDS011;68636;52.704;6.536;2023-04-25T10:12:15;9.98;;;0.70;;
58338;SDS011;68636;52.704;6.536;2023-04-25T10:14:41;10.75;;;1.05;;
58338;SDS011;68636;52.704;6.536;2023-04-25T10:17:09;15.20;;;1.15;;
58338;SDS011;68636;52.704;6.536;2023-04-25T10:19:36;12.45;;;1.15;;
58338;SDS011;68636;52.704;6.536;2023-04-25T10:22:26;6.50;;;0.68;;
58338;SDS011;68636;52.704;6.536;2023-04-25T10:24:53;10.38;;;1.00;;
58338;SDS011;68636;52.704;6.536;2023-04-25T10:27:21;11.05;;;0.80;;
58338;SDS011;68636;52.704;6.536;2023-04-25T10:29:59;10.48;;;1.30;;
58338;SDS011;68636;52.704;6.536;2023-04-25T10:32:32;7.22;;;1.10;;
58338;SDS011;68636;52.704;6.536;2023-04-25T10:35:09;8.50;;;1.10;;
58338;SDS011;68636;52.704;6.536;2023-04-25T10:37:56;8.55;;;1.50;;
58338;SDS011;68636;52.704;6.536;2023-04-25T10:40:26;10.57;;;1.85;;
58338;SDS011;68636;52.704;6.536;2023-04-25T10:42:55;18.35;;;4.43;;
58338;SDS011;68636;52.704;6.536;2023-04-25T10:45:21;7.35;;;0.98;;
58338;SDS011;68636;52.704;6.536;2023-04-25T10:47:47;13.02;;;1.00;;
58338;SDS011;68636;52.704;6.536;2023-04-25T10:50:16;8.93;;;1.00;;
58338;SDS011;68636;52.704;6.536;2023-04-25T10:52:42;7.50;;;0.73;;
58338;SDS011;68636;52.704;6.536;2023-04-25T10:55:09;6.53;;;0.70;;
58338;SDS011;68636;52.704;6.536;2023-04-25T10:57:41;10.05;;;0.77;;
58338;SDS011;68636;52.704;6.536;2023-04-25T11:00:19;6.93;;;0.57;;
58338;SDS011;68636;52.704;6.536;2023-04-25T11:02:57;10.30;;;1.08;;
58338;SDS011;68636;52.704;6.536;2023-04-25T11:05:34;8.27;;;0.90;;
58338;SDS011;68636;52.704;6.536;2023-04-25T11:10:32;7.38;;;0.93;;
58338;SDS011;68636;52.704;6.536;2023-04-25T11:13:00;9.52;;;1.10;;
58338;SDS011;68636;52.704;6.536;2023-04-25T11:15:26;10.80;;;1.15;;
58338;SDS011;68636;52.704;6.536;2023-04-25T11:17:53;10.70;;;0.90;;
58338;SDS011;68636;52.704;6.536;2023-04-25T11:20:20;7.60;;;1.00;;
58338;SDS011;68636;52.704;6.536;2023-04-25T11:22:46;10.82;;;0.88;;
58338;SDS011;68636;52.704;6.536;2023-04-25T11:25:13;8.23;;;1.00;;
58338;SDS011;68636;52.704;6.536;2023-04-25T11:30:19;9.32;;;1.10;;
58338;SDS011;68636;52.704;6.536;2023-04-25T11:32:45;10.20;;;1.05;;
58338;SDS011;68636;52.704;6.536;2023-04-25T11:35:11;6.75;;;0.60;;
58338;SDS011;68636;52.704;6.536;2023-04-25T11:37:41;4.47;;;0.55;;
58338;SDS011;68636;52.704;6.536;2023-04-25T11:40:08;6.55;;;0.80;;
58338;SDS011;68636;52.704;6.536;2023-04-25T11:42:43;12.90;;;0.88;;
58338;SDS011;68636;52.704;6.536;2023-04-25T11:45:10;8.05;;;0.65;;
58338;SDS011;68636;52.704;6.536;2023-04-25T11:47:35;9.52;;;1.20;;
58338;SDS011;68636;52.704;6.536;2023-04-25T11:50:02;10.50;;;0.70;;
58338;SDS011;68636;52.704;6.536;2023-04-25T11:52:36;7.18;;;0.82;;
58338;SDS011;68636;52.704;6.536;2023-04-25T11:55:09;6.82;;;0.80;;
58338;SDS011;68636;52.704;6.536;2023-04-25T11:57:37;9.48;;;0.95;;
58338;SDS011;68636;52.704;6.536;2023-04-25T12:00:11;6.53;;;0.73;;
58338;SDS011;68636;52.704;6.536;2023-04-25T12:02:41;8.45;;;0.90;;
58338;SDS011;68636;52.704;6.536;2023-04-25T12:05:08;7.35;;;0.80;;
58338;SDS011;68636;52.704;6.536;2023-04-25T12:07:34;8.88;;;0.80;;
58338;SDS011;68636;52.704;6.536;2023-04-25T12:10:05;6.00;;;0.70;;
58338;SDS011;68636;52.704;6.536;2023-04-25T12:12:32;10.38;;;0.70;;
58338;SDS011;68636;52.704;6.536;2023-04-25T12:15:12;7.40;;;0.75;;
58338;SDS011;68636;52.704;6.536;2023-04-25T12:17:41;4.22;;;0.40;;
58338;SDS011;68636;52.704;6.536;2023-04-25T12:20:08;4.78;;;0.57;;
58338;SDS011;68636;52.704;6.536;2023-04-25T12:22:39;5.32;;;0.55;;
58338;SDS011;68636;52.704;6.536;2023-04-25T12:25:12;5.65;;;0.73;;
58338;SDS011;68636;52.704;6.536;2023-04-25T12:27:38;6.78;;;0.60;;
58338;SDS011;68636;52.704;6.536;2023-04-25T12:30:09;7.60;;;0.82;;
58338;SDS011;68636;52.704;6.536;2023-04-25T12:32:36;11.65;;;0.80;;
58338;SDS011;68636;52.704;6.536;2023-04-25T12:37:31;11.63;;;1.27;;
58338;SDS011;68636;52.704;6.536;2023-04-25T12:39:57;6.93;;;0.73;;
58338;SDS011;68636;52.704;6.536;2023-04-25T12:42:23;9.20;;;1.13;;
58338;SDS011;68636;52.704;6.536;2023-04-25T12:44:49;7.53;;;0.60;;
58338;SDS011;68636;52.704;6.536;2023-04-25T12:47:16;8.80;;;0.93;;
58338;SDS011;68636;52.704;6.536;2023-04-25T12:49:42;7.35;;;0.80;;
58338;SDS011;68636;52.704;6.536;2023-04-25T12:52:08;10.95;;;0.98;;
58338;SDS011;68636;52.704;6.536;2023-04-25T12:54:35;6.57;;;0.70;;
58338;SDS011;68636;52.704;6.536;2023-04-25T12:57:00;8.20;;;0.57;;
58338;SDS011;68636;52.704;6.536;2023-04-25T12:59:27;10.85;;;0.82;;
58338;SDS011;68636;52.704;6.536;2023-04-25T13:01:53;12.02;;;0.80;;
58338;SDS011;68636;52.704;6.536;2023-04-25T13:04:20;7.75;;;1.08;;
58338;SDS011;68636;52.704;6.536;2023-04-25T13:06:46;10.13;;;1.02;;
58338;SDS011;68636;52.704;6.536;2023-04-25T13:09:12;5.05;;;0.95;;
58338;SDS011;68636;52.704;6.536;2023-04-25T13:11:40;6.60;;;0.80;;
58338;SDS011;68636;52.704;6.536;2023-04-25T13:14:07;4.70;;;0.50;;
58338;SDS011;68636;52.704;6.536;2023-04-25T13:16:36;7.28;;;0.85;;
58338;SDS011;68636;52.704;6.536;2023-04-25T13:19:02;11.35;;;0.80;;
58338;SDS011;68636;52.704;6.536;2023-04-25T13:21:29;7.50;;;0.77;;
58338;SDS011;68636;52.704;6.536;2023-04-25T13:23:57;3.88;;;0.80;;
58338;SDS011;68636;52.704;6.536;2023-04-25T13:26:23;5.20;;;0.70;;
58338;SDS011;68636;52.704;6.536;2023-04-25T13:28:49;7.30;;;0.93;;
58338;SDS011;68636;52.704;6.536;2023-04-25T13:31:15;7.85;;;0.50;;
58338;SDS011;68636;52.704;6.536;2023-04-25T13:33:41;4.88;;;0.70;;
58338;SDS011;68636;52.704;6.536;2023-04-25T13:36:08;9.88;;;1.33;;
58338;SDS011;68636;52.704;6.536;2023-04-25T13:38:33;9.85;;;0.85;;
58338;SDS011;68636;52.704;6.536;2023-04-25T13:40:59;9.95;;;1.45;;
58338;SDS011;68636;52.704;6.536;2023-04-25T13:43:26;8.32;;;1.00;;
58338;SDS011;68636;52.704;6.536;2023-04-25T13:45:51;8.60;;;1.05;;
58338;SDS011;68636;52.704;6.536;2023-04-25T13:48:18;6.13;;;0.77;;
58338;SDS011;68636;52.704;6.536;2023-04-25T13:53:10;7.47;;;1.20;;
58338;SDS011;68636;52.704;6.536;2023-04-25T13:55:37;9.85;;;0.80;;
58338;SDS011;68636;52.704;6.536;2023-04-25T13:58:03;5.00;;;0.68;;
58338;SDS011;68636;52.704;6.536;2023-04-25T14:00:33;12.07;;;1.50;;
58338;SDS011;68636;52.704;6.536;2023-04-25T14:03:08;8.57;;;1.00;;
58338;SDS011;68636;52.704;6.536;2023-04-25T14:05:37;9.65;;;0.77;;
58338;SDS011;68636;52.704;6.536;2023-04-25T14:08:07;7.93;;;0.80;;
58338;SDS011;68636;52.704;6.536;2023-04-25T14:10:34;11.00;;;1.75;;
58338;SDS011;68636;52.704;6.536;2023-04-25T14:13:00;7.00;;;0.83;;
58338;SDS011;68636;52.704;6.536;2023-04-25T14:17:54;6.75;;;0.95;;
58338;SDS011;68636;52.704;6.536;2023-04-25T14:20:20;9.80;;;1.25;;
58338;SDS011;68636;52.704;6.536;2023-04-25T14:22:46;10.57;;;1.00;;
58338;SDS011;68636;52.704;6.536;2023-04-25T14:25:12;6.60;;;1.33;;
58338;SDS011;68636;52.704;6.536;2023-04-25T14:27:38;4.93;;;0.55;;
58338;SDS011;68636;52.704;6.536;2023-04-25T14:30:04;7.65;;;0.77;;
58338;SDS011;68636;52.704;6.536;2023-04-25T14:32:30;5.05;;;0.50;;
58338;SDS011;68636;52.704;6.536;2023-04-25T14:34:57;6.15;;;0.75;;
58338;SDS011;68636;52.704;6.536;2023-04-25T14:37:22;6.88;;;0.57;;
58338;SDS011;68636;52.704;6.536;2023-04-25T14:39:48;5.75;;;0.57;;
58338;SDS011;68636;52.704;6.536;2023-04-25T14:42:14;8.75;;;1.00;;
58338;SDS011;68636;52.704;6.536;2023-04-25T14:44:40;8.50;;;0.70;;
58338;SDS011;68636;52.704;6.536;2023-04-25T14:47:05;9.68;;;1.08;;
58338;SDS011;68636;52.704;6.536;2023-04-25T14:49:32;9.55;;;0.70;;
58338;SDS011;68636;52.704;6.536;2023-04-25T14:51:58;10.20;;;1.05;;
58338;SDS011;68636;52.704;6.536;2023-04-25T14:54:23;8.63;;;1.05;;
58338;SDS011;68636;52.704;6.536;2023-04-25T14:56:49;10.70;;;1.02;;